sim
Sign-in with your pilot id or email,
or register
Callsign
Passwort

Schedule Details

Flight Number: OEF9163
Departure: Nairobi Jomo Kenyatta International Airport (HKJK) at 22:00
Arrival: Munich Airport (EDDM) at 05:35

Weather Information
Getting current METAR information for HKJK 242000Z 05005KT CAVOK 17/13 Q1023 NOSIG
Getting current METAR information for EDDM 242050Z 11005KT CAVOK 16/14 Q1003 NOSIG

Schedule Frequency

Route Map